sensor_id;sensor_type;location;lat;lon;timestamp;pressure;altitude;pressure_sealevel;temperature;humidity
33859;BME280;20156;47.486;12.074;2023-03-14T00:00:13;93703.16;;;7.34;100.00
33859;BME280;20156;47.486;12.074;2023-03-14T00:02:39;93680.78;;;7.28;100.00
33859;BME280;20156;47.486;12.074;2023-03-14T00:05:05;93668.09;;;7.38;100.00
33859;BME280;20156;47.486;12.074;2023-03-14T00:07:35;93665.75;;;7.48;100.00
33859;BME280;20156;47.486;12.074;2023-03-14T00:10:06;93647.41;;;7.38;100.00
33859;BME280;20156;47.486;12.074;2023-03-14T00:12:32;93685.84;;;7.76;100.00
33859;BME280;20156;47.486;12.074;2023-03-14T00:14:57;93706.94;;;7.19;100.00
33859;BME280;20156;47.486;12.074;2023-03-14T00:17:23;93668.59;;;7.16;100.00
33859;BME280;20156;47.486;12.074;2023-03-14T00:19:48;93660.06;;;7.16;100.00
33859;BME280;20156;47.486;12.074;2023-03-14T00:22:17;93645.66;;;7.08;100.00
33859;BME280;20156;47.486;12.074;2023-03-14T00:24:43;93622.34;;;6.97;100.00
33859;BME280;20156;47.486;12.074;2023-03-14T00:27:08;93584.88;;;6.76;100.00
33859;BME280;20156;47.486;12.074;2023-03-14T00:29:33;93549.91;;;6.61;100.00
33859;BME280;20156;47.486;12.074;2023-03-14T00:31:59;93526.53;;;6.56;100.00
33859;BME280;20156;47.486;12.074;2023-03-14T00:34:29;93481.25;;;6.54;100.00
33859;BME280;20156;47.486;12.074;2023-03-14T00:36:54;93467.97;;;6.50;100.00
33859;BME280;20156;47.486;12.074;2023-03-14T00:39:20;93473.31;;;6.25;100.00
33859;BME280;20156;47.486;12.074;2023-03-14T00:41:45;93433.81;;;6.25;100.00
33859;BME280;20156;47.486;12.074;2023-03-14T00:44:11;93426.56;;;6.45;100.00
33859;BME280;20156;47.486;12.074;2023-03-14T00:46:36;93449.63;;;6.28;100.00
33859;BME280;20156;47.486;12.074;2023-03-14T00:49:01;93441.63;;;6.18;100.00
33859;BME280;20156;47.486;12.074;2023-03-14T00:51:27;93421.44;;;6.15;100.00
33859;BME280;20156;47.486;12.074;2023-03-14T00:53:52;93429.28;;;6.09;100.00
33859;BME280;20156;47.486;12.074;2023-03-14T00:56:18;93398.06;;;6.10;100.00
33859;BME280;20156;47.486;12.074;2023-03-14T00:58:43;93397.31;;;6.21;100.00
33859;BME280;20156;47.486;12.074;2023-03-14T01:01:13;93416.59;;;6.07;100.00
33859;BME280;20156;47.486;12.074;2023-03-14T01:03:38;93385.97;;;6.11;100.00
33859;BME280;20156;47.486;12.074;2023-03-14T01:08:33;93406.19;;;6.25;100.00
33859;BME280;20156;47.486;12.074;2023-03-14T01:10:59;93403.84;;;6.24;100.00
33859;BME280;20156;47.486;12.074;2023-03-14T01:13:24;93398.19;;;6.15;100.00
33859;BME280;20156;47.486;12.074;2023-03-14T01:15:50;93384.53;;;6.26;100.00
33859;BME280;20156;47.486;12.074;2023-03-14T01:18:15;93397.59;;;6.01;100.00
33859;BME280;20156;47.486;12.074;2023-03-14T01:20:40;93381.13;;;5.84;100.00
33859;BME280;20156;47.486;12.074;2023-03-14T01:23:06;93355.41;;;5.96;100.00
33859;BME280;20156;47.486;12.074;2023-03-14T01:25:31;93356.13;;;6.15;100.00
33859;BME280;20156;47.486;12.074;2023-03-14T01:27:57;93354.00;;;6.23;100.00
33859;BME280;20156;47.486;12.074;2023-03-14T01:30:22;93370.94;;;6.31;100.00
33859;BME280;20156;47.486;12.074;2023-03-14T01:32:47;93389.59;;;6.33;100.00
33859;BME280;20156;47.486;12.074;2023-03-14T01:35:13;93388.69;;;6.27;100.00
33859;BME280;20156;47.486;12.074;2023-03-14T01:37:38;93395.97;;;6.30;100.00
33859;BME280;20156;47.486;12.074;2023-03-14T01:40:04;93351.53;;;5.87;100.00
33859;BME280;20156;47.486;12.074;2023-03-14T01:42:30;93288.31;;;5.96;100.00
33859;BME280;20156;47.486;12.074;2023-03-14T01:44:58;93275.97;;;6.21;100.00
33859;BME280;20156;47.486;12.074;2023-03-14T01:47:24;93286.97;;;6.75;100.00
33859;BME280;20156;47.486;12.074;2023-03-14T01:50:01;93323.91;;;6.64;100.00
33859;BME280;20156;47.486;12.074;2023-03-14T01:52:36;93335.91;;;6.70;100.00
33859;BME280;20156;47.486;12.074;2023-03-14T01:55:09;93355.56;;;6.71;100.00
33859;BME280;20156;47.486;12.074;2023-03-14T01:57:39;93360.41;;;6.68;100.00
33859;BME280;20156;47.486;12.074;2023-03-14T02:00:13;93358.38;;;6.81;100.00
33859;BME280;20156;47.486;12.074;2023-03-14T02:02:42;93350.88;;;6.80;100.00
33859;BME280;20156;47.486;12.074;2023-03-14T02:05:09;93360.19;;;6.92;100.00
33859;BME280;20156;47.486;12.074;2023-03-14T02:07:55;93362.97;;;7.03;100.00
33859;BME280;20156;47.486;12.074;2023-03-14T02:10:23;93383.63;;;7.03;100.00
33859;BME280;20156;47.486;12.074;2023-03-14T02:12:51;93372.19;;;7.10;100.00
33859;BME280;20156;47.486;12.074;2023-03-14T02:15:17;93398.72;;;7.06;100.00
33859;BME280;20156;47.486;12.074;2023-03-14T02:17:44;93391.75;;;7.06;100.00
33859;BME280;20156;47.486;12.074;2023-03-14T02:22:48;93395.66;;;7.20;100.00
33859;BME280;20156;47.486;12.074;2023-03-14T02:27:46;93422.84;;;7.35;100.00
33859;BME280;20156;47.486;12.074;2023-03-14T02:30:20;93424.31;;;7.31;100.00
33859;BME280;20156;47.486;12.074;2023-03-14T02:32:49;93424.78;;;7.28;100.00
33859;BME280;20156;47.486;12.074;2023-03-14T02:35:22;93429.03;;;7.22;100.00
33859;BME280;20156;47.486;12.074;2023-03-14T02:40:18;93375.00;;;7.49;100.00
33859;BME280;20156;47.486;12.074;2023-03-14T02:42:44;93385.88;;;7.63;100.00
33859;BME280;20156;47.486;12.074;2023-03-14T02:47:39;93382.50;;;7.62;100.00
33859;BME280;20156;47.486;12.074;2023-03-14T02:50:14;93373.91;;;7.45;100.00
33859;BME280;20156;47.486;12.074;2023-03-14T02:52:41;93370.53;;;7.44;100.00
33859;BME280;20156;47.486;12.074;2023-03-14T02:55:07;93367.72;;;7.46;100.00
33859;BME280;20156;47.486;12.074;2023-03-14T02:57:33;93371.22;;;7.40;100.00
33859;BME280;20156;47.486;12.074;2023-03-14T02:59:59;93365.47;;;7.38;100.00
33859;BME280;20156;47.486;12.074;2023-03-14T03:02:25;93368.31;;;7.65;100.00
33859;BME280;20156;47.486;12.074;2023-03-14T03:04:51;93380.25;;;7.94;100.00
33859;BME280;20156;47.486;12.074;2023-03-14T03:07:16;93397.34;;;7.95;100.00
33859;BME280;20156;47.486;12.074;2023-03-14T03:09:42;93400.53;;;7.85;100.00
33859;BME280;20156;47.486;12.074;2023-03-14T03:12:07;93355.78;;;8.19;100.00
33859;BME280;20156;47.486;12.074;2023-03-14T03:14:33;93351.09;;;8.32;100.00
33859;BME280;20156;47.486;12.074;2023-03-14T03:16:58;93320.63;;;8.56;100.00
33859;BME280;20156;47.486;12.074;2023-03-14T03:19:23;93307.78;;;8.44;100.00
33859;BME280;20156;47.486;12.074;2023-03-14T03:21:49;93313.41;;;8.08;100.00
33859;BME280;20156;47.486;12.074;2023-03-14T03:24:14;93276.47;;;8.12;100.00
33859;BME280;20156;47.486;12.074;2023-03-14T03:26:40;93245.06;;;8.09;100.00
33859;BME280;20156;47.486;12.074;2023-03-14T03:29:05;93175.19;;;7.92;100.00
33859;BME280;20156;47.486;12.074;2023-03-14T03:31:30;93094.56;;;7.83;100.00
33859;BME280;20156;47.486;12.074;2023-03-14T03:33:56;92978.47;;;7.70;100.00
33859;BME280;20156;47.486;12.074;2023-03-14T03:36:23;92900.91;;;7.75;100.00
33859;BME280;20156;47.486;12.074;2023-03-14T03:38:50;92827.66;;;7.75;100.00
33859;BME280;20156;47.486;12.074;2023-03-14T03:41:15;92752.56;;;7.70;100.00
33859;BME280;20156;47.486;12.074;2023-03-14T03:43:41;92639.25;;;7.72;100.00
33859;BME280;20156;47.486;12.074;2023-03-14T03:46:07;92530.91;;;7.80;100.00
33859;BME280;20156;47.486;12.074;2023-03-14T03:48:33;92406.94;;;7.84;100.00
33859;BME280;20156;47.486;12.074;2023-03-14T03:50:58;92276.00;;;7.88;100.00
33859;BME280;20156;47.486;12.074;2023-03-14T03:53:24;92170.16;;;7.87;100.00
33859;BME280;20156;47.486;12.074;2023-03-14T03:55:49;92031.41;;;8.01;100.00
33859;BME280;20156;47.486;12.074;2023-03-14T03:58:15;91905.59;;;8.05;100.00
33859;BME280;20156;47.486;12.074;2023-03-14T04:00:40;91791.19;;;8.08;100.00
33859;BME280;20156;47.486;12.074;2023-03-14T04:03:06;91638.19;;;8.09;100.00
33859;BME280;20156;47.486;12.074;2023-03-14T04:05:32;91567.47;;;8.14;100.00
33859;BME280;20156;47.486;12.074;2023-03-14T04:07:59;91481.84;;;8.10;100.00
33859;BME280;20156;47.486;12.074;2023-03-14T04:10:24;91359.78;;;8.03;100.00
33859;BME280;20156;47.486;12.074;2023-03-14T04:12:50;91205.00;;;7.92;100.00
33859;BME280;20156;47.486;12.074;2023-03-14T04:15:15;91064.53;;;7.91;100.00
33859;BME280;20156;47.486;12.074;2023-03-14T04:17:41;90919.34;;;7.93;100.00
33859;BME280;20156;47.486;12.074;2023-03-14T04:20:07;90799.59;;;7.92;100.00
33859;BME280;20156;47.486;12.074;2023-03-14T04:22:36;90678.56;;;7.89;100.00
33859;BME280;20156;47.486;12.074;2023-03-14T04:25:01;90557.78;;;7.90;100.00
33859;BME280;20156;47.486;12.074;2023-03-14T04:27:28;90410.34;;;7.90;100.00
33859;BME280;20156;47.486;12.074;2023-03-14T04:29:54;90284.50;;;7.85;100.00
33859;BME280;20156;47.486;12.074;2023-03-14T04:32:19;90185.47;;;7.84;100.00
33859;BME280;20156;47.486;12.074;2023-03-14T04:34:45;90091.16;;;7.82;100.00
33859;BME280;20156;47.486;12.074;2023-03-14T04:37:10;90006.78;;;7.77;100.00
33859;BME280;20156;47.486;12.074;2023-03-14T04:39:36;89925.28;;;7.71;100.00
33859;BME280;20156;47.486;12.074;2023-03-14T04:42:01;89799.03;;;7.73;100.00
33859;BME280;20156;47.486;12.074;2023-03-14T04:44:27;89691.50;;;7.72;100.00
33859;BME280;20156;47.486;12.074;2023-03-14T04:46:52;89592.50;;;7.72;100.00
33859;BME280;20156;47.486;12.074;2023-03-14T04:49:18;89499.53;;;7.75;100.00
33859;BME280;20156;47.486;12.074;2023-03-14T04:51:43;89446.34;;;7.74;100.00
33859;BME280;20156;47.486;12.074;2023-03-14T04:54:09;89420.59;;;7.66;100.00
33859;BME280;20156;47.486;12.074;2023-03-14T04:56:34;89398.88;;;7.54;100.00
33859;BME280;20156;47.486;12.074;2023-03-14T04:58:59;89352.69;;;7.53;100.00
33859;BME280;20156;47.486;12.074;2023-03-14T05:01:25;89297.00;;;7.55;100.00
33859;BME280;20156;47.486;12.074;2023-03-14T05:03:50;89231.41;;;7.60;100.00
33859;BME280;20156;47.486;12.074;2023-03-14T05:06:16;89193.31;;;7.57;100.00
33859;BME280;20156;47.486;12.074;2023-03-14T05:08:41;89153.69;;;7.53;100.00
33859;BME280;20156;47.486;12.074;2023-03-14T05:11:10;89102.75;;;7.53;100.00
33859;BME280;20156;47.486;12.074;2023-03-14T05:13:35;89057.59;;;7.47;100.00
33859;BME280;20156;47.486;12.074;2023-03-14T05:16:09;89035.78;;;7.45;100.00
33859;BME280;20156;47.486;12.074;2023-03-14T05:18:35;89007.69;;;7.43;100.00
33859;BME280;20156;47.486;12.074;2023-03-14T05:21:00;88976.75;;;7.47;100.00
33859;BME280;20156;47.486;12.074;2023-03-14T05:23:26;88958.31;;;7.48;100.00
33859;BME280;20156;47.486;12.074;2023-03-14T05:25:51;88944.25;;;7.46;100.00
33859;BME280;20156;47.486;12.074;2023-03-14T05:28:17;88928.75;;;7.46;100.00
33859;BME280;20156;47.486;12.074;2023-03-14T05:30:42;88920.25;;;7.45;100.00
33859;BME280;20156;47.486;12.074;2023-03-14T05:33:07;88911.75;;;7.45;100.00
33859;BME280;20156;47.486;12.074;2023-03-14T05:35:33;88918.00;;;7.44;100.00
33859;BME280;20156;47.486;12.074;2023-03-14T05:37:58;88920.59;;;7.44;100.00
33859;BME280;20156;47.486;12.074;2023-03-14T05:40:24;88929.78;;;7.41;100.00
33859;BME280;20156;47.486;12.074;2023-03-14T05:42:49;88927.25;;;7.45;100.00
33859;BME280;20156;47.486;12.074;2023-03-14T05:45:15;88953.91;;;7.49;100.00
33859;BME280;20156;47.486;12.074;2023-03-14T05:47:40;88961.31;;;7.50;100.00
33859;BME280;20156;47.486;12.074;2023-03-14T05:50:06;88998.84;;;7.44;100.00
33859;BME280;20156;47.486;12.074;2023-03-14T05:52:31;88921.69;;;7.43;100.00
33859;BME280;20156;47.486;12.074;2023-03-14T05:54:57;88932.34;;;7.41;100.00
33859;BME280;20156;47.486;12.074;2023-03-14T05:57:22;88927.53;;;7.40;100.00
33859;BME280;20156;47.486;12.074;2023-03-14T05:59:48;88926.00;;;7.39;100.00
33859;BME280;20156;47.486;12.074;2023-03-14T06:02:13;88912.03;;;7.40;100.00
33859;BME280;20156;47.486;12.074;2023-03-14T06:04:39;88909.09;;;7.41;100.00
33859;BME280;20156;47.486;12.074;2023-03-14T06:07:04;88902.84;;;7.42;100.00
33859;BME280;20156;47.486;12.074;2023-03-14T06:09:29;88908.03;;;7.42;100.00
33859;BME280;20156;47.486;12.074;2023-03-14T06:11:55;88905.03;;;7.40;100.00
33859;BME280;20156;47.486;12.074;2023-03-14T06:14:20;88917.84;;;7.37;100.00
33859;BME280;20156;47.486;12.074;2023-03-14T06:16:46;88917.44;;;7.35;100.00
33859;BME280;20156;47.486;12.074;2023-03-14T06:19:14;88911.88;;;7.33;100.00
33859;BME280;20156;47.486;12.074;2023-03-14T06:21:40;88912.28;;;7.35;100.00
33859;BME280;20156;47.486;12.074;2023-03-14T06:24:05;88913.31;;;7.30;100.00
33859;BME280;20156;47.486;12.074;2023-03-14T06:26:30;88910.31;;;7.28;100.00
33859;BME280;20156;47.486;12.074;2023-03-14T06:28:56;88900.81;;;7.32;100.00
33859;BME280;20156;47.486;12.074;2023-03-14T06:31:21;88898.28;;;7.36;100.00
33859;BME280;20156;47.486;12.074;2023-03-14T06:33:47;88885.75;;;7.38;100.00
33859;BME280;20156;47.486;12.074;2023-03-14T06:36:12;88876.59;;;7.40;100.00
33859;BME280;20156;47.486;12.074;2023-03-14T06:38:38;88883.63;;;7.40;100.00
33859;BME280;20156;47.486;12.074;2023-03-14T06:41:07;88897.19;;;7.37;100.00
33859;BME280;20156;47.486;12.074;2023-03-14T06:43:33;88897.34;;;7.24;100.00
33859;BME280;20156;47.486;12.074;2023-03-14T06:45:58;88917.13;;;7.17;100.00
33859;BME280;20156;47.486;12.074;2023-03-14T06:48:24;88907.19;;;7.19;100.00
33859;BME280;20156;47.486;12.074;2023-03-14T06:50:49;88904.34;;;7.24;100.00
33859;BME280;20156;47.486;12.074;2023-03-14T06:53:15;88931.84;;;7.16;100.00
33859;BME280;20156;47.486;12.074;2023-03-14T06:55:40;88943.97;;;7.12;100.00
33859;BME280;20156;47.486;12.074;2023-03-14T06:58:06;88960.47;;;7.08;100.00
33859;BME280;20156;47.486;12.074;2023-03-14T07:00:33;88951.63;;;7.09;100.00
33859;BME280;20156;47.486;12.074;2023-03-14T07:02:59;88952.94;;;7.18;100.00
33859;BME280;20156;47.486;12.074;2023-03-14T07:05:25;88955.66;;;7.26;100.00
33859;BME280;20156;47.486;12.074;2023-03-14T07:07:50;88960.56;;;7.31;100.00
33859;BME280;20156;47.486;12.074;2023-03-14T07:10:16;88974.22;;;7.31;100.00
33859;BME280;20156;47.486;12.074;2023-03-14T07:12:41;88984.97;;;7.33;100.00
33859;BME280;20156;47.486;12.074;2023-03-14T07:15:07;89024.41;;;7.30;100.00
33859;BME280;20156;47.486;12.074;2023-03-14T07:17:33;89067.16;;;7.28;100.00
33859;BME280;20156;47.486;12.074;2023-03-14T07:19:58;88914.00;;;7.27;100.00
33859;BME280;20156;47.486;12.074;2023-03-14T07:22:24;88897.41;;;7.28;100.00
33859;BME280;20156;47.486;12.074;2023-03-14T07:24:50;88873.53;;;7.35;100.00
33859;BME280;20156;47.486;12.074;2023-03-14T07:27:15;88865.84;;;7.38;100.00
33859;BME280;20156;47.486;12.074;2023-03-14T07:29:41;88862.59;;;7.41;100.00
33859;BME280;20156;47.486;12.074;2023-03-14T07:32:06;88843.09;;;7.44;100.00
33859;BME280;20156;47.486;12.074;2023-03-14T07:34:33;88836.88;;;7.48;100.00
33859;BME280;20156;47.486;12.074;2023-03-14T07:36:59;88859.28;;;7.41;100.00
33859;BME280;20156;47.486;12.074;2023-03-14T07:39:24;88875.88;;;7.40;100.00
33859;BME280;20156;47.486;12.074;2023-03-14T07:41:50;88888.34;;;7.38;100.00
33859;BME280;20156;47.486;12.074;2023-03-14T07:44:15;88886.84;;;7.37;100.00
33859;BME280;20156;47.486;12.074;2023-03-14T07:46:40;88877.69;;;7.39;100.00
33859;BME280;20156;47.486;12.074;2023-03-14T07:49:06;88871.34;;;7.37;100.00
33859;BME280;20156;47.486;12.074;2023-03-14T07:51:31;88860.69;;;7.38;100.00
33859;BME280;20156;47.486;12.074;2023-03-14T07:53:57;88839.34;;;7.41;100.00
33859;BME280;20156;47.486;12.074;2023-03-14T07:56:22;88820.69;;;7.51;100.00
33859;BME280;20156;47.486;12.074;2023-03-14T07:58:47;88817.69;;;7.49;100.00
33859;BME280;20156;47.486;12.074;2023-03-14T08:01:13;88802.34;;;7.57;100.00
33859;BME280;20156;47.486;12.074;2023-03-14T08:03:39;88819.53;;;7.49;100.00
33859;BME280;20156;47.486;12.074;2023-03-14T08:06:04;88811.84;;;7.52;100.00
33859;BME280;20156;47.486;12.074;2023-03-14T08:08:30;88809.34;;;7.56;100.00
33859;BME280;20156;47.486;12.074;2023-03-14T08:10:55;88831.38;;;7.50;100.00
33859;BME280;20156;47.486;12.074;2023-03-14T08:13:20;88846.13;;;7.49;100.00
33859;BME280;20156;47.486;12.074;2023-03-14T08:15:49;88838.09;;;7.54;100.00
33859;BME280;20156;47.486;12.074;2023-03-14T08:18:16;88851.75;;;7.55;100.00
33859;BME280;20156;47.486;12.074;2023-03-14T08:20:41;88855.06;;;7.55;100.00
33859;BME280;20156;47.486;12.074;2023-03-14T08:23:07;88852.91;;;7.58;100.00
33859;BME280;20156;47.486;12.074;2023-03-14T08:25:32;88862.09;;;7.55;100.00
33859;BME280;20156;47.486;12.074;2023-03-14T08:27:58;88876.84;;;7.54;100.00
33859;BME280;20156;47.486;12.074;2023-03-14T08:30:23;88870.72;;;7.63;100.00
33859;BME280;20156;47.486;12.074;2023-03-14T08:32:49;88895.75;;;7.59;100.00
33859;BME280;20156;47.486;12.074;2023-03-14T08:35:15;88887.38;;;7.65;100.00
33859;BME280;20156;47.486;12.074;2023-03-14T08:37:40;88903.22;;;7.64;100.00
33859;BME280;20156;47.486;12.074;2023-03-14T08:40:07;88908.06;;;7.65;100.00
33859;BME280;20156;47.486;12.074;2023-03-14T08:42:33;88915.47;;;7.67;100.00
33859;BME280;20156;47.486;12.074;2023-03-14T08:44:59;88921.78;;;7.69;100.00
33859;BME280;20156;47.486;12.074;2023-03-14T08:47:25;88946.47;;;7.67;100.00
33859;BME280;20156;47.486;12.074;2023-03-14T08:49:50;88956.53;;;7.72;100.00
33859;BME280;20156;47.486;12.074;2023-03-14T08:52:16;88968.06;;;7.74;100.00
33859;BME280;20156;47.486;12.074;2023-03-14T08:54:43;88993.91;;;7.74;100.00
33859;BME280;20156;47.486;12.074;2023-03-14T08:57:09;89015.25;;;7.71;100.00
33859;BME280;20156;47.486;12.074;2023-03-14T08:59:35;89027.50;;;7.74;100.00
33859;BME280;20156;47.486;12.074;2023-03-14T09:02:01;89057.28;;;7.68;100.00
33859;BME280;20156;47.486;12.074;2023-03-14T09:04:29;89059.69;;;7.77;100.00
33859;BME280;20156;47.486;12.074;2023-03-14T09:06:55;89097.22;;;7.71;100.00
33859;BME280;20156;47.486;12.074;2023-03-14T09:09:23;89121.97;;;7.72;100.00
33859;BME280;20156;47.486;12.074;2023-03-14T09:11:49;89174.97;;;7.62;100.00
33859;BME280;20156;47.486;12.074;2023-03-14T09:14:14;89182.88;;;7.69;100.00
33859;BME280;20156;47.486;12.074;2023-03-14T09:16:40;89202.56;;;7.74;100.00
33859;BME280;20156;47.486;12.074;2023-03-14T09:19:05;89234.22;;;7.71;100.00
33859;BME280;20156;47.486;12.074;2023-03-14T09:21:31;89253.06;;;7.71;100.00
33859;BME280;20156;47.486;12.074;2023-03-14T09:23:56;89266.00;;;7.71;100.00
33859;BME280;20156;47.486;12.074;2023-03-14T09:26:22;89276.03;;;7.73;100.00
33859;BME280;20156;47.486;12.074;2023-03-14T09:28:47;89298.53;;;7.72;100.00
33859;BME280;20156;47.486;12.074;2023-03-14T09:31:14;89314.28;;;7.67;100.00
33859;BME280;20156;47.486;12.074;2023-03-14T09:33:39;89327.97;;;7.68;100.00
33859;BME280;20156;47.486;12.074;2023-03-14T09:36:06;89330.13;;;7.66;100.00
33859;BME280;20156;47.486;12.074;2023-03-14T09:38:33;89337.13;;;7.65;100.00
33859;BME280;20156;47.486;12.074;2023-03-14T09:41:00;89345.47;;;7.59;100.00
33859;BME280;20156;47.486;12.074;2023-03-14T09:43:29;89352.81;;;7.57;100.00
33859;BME280;20156;47.486;12.074;2023-03-14T09:45:57;89362.53;;;7.47;100.00
33859;BME280;20156;47.486;12.074;2023-03-14T09:48:27;89390.25;;;7.35;100.00
33859;BME280;20156;47.486;12.074;2023-03-14T09:50:55;89409.84;;;7.36;100.00
33859;BME280;20156;47.486;12.074;2023-03-14T09:53:26;89434.72;;;7.28;100.00
33859;BME280;20156;47.486;12.074;2023-03-14T09:55:53;89448.91;;;7.34;100.00
33859;BME280;20156;47.486;12.074;2023-03-14T09:58:20;89476.06;;;7.40;100.00
33859;BME280;20156;47.486;12.074;2023-03-14T10:00:47;89503.25;;;7.50;100.00
33859;BME280;20156;47.486;12.074;2023-03-14T10:05:39;89611.38;;;7.48;100.00
33859;BME280;20156;47.486;12.074;2023-03-14T10:08:05;89678.38;;;7.41;100.00
33859;BME280;20156;47.486;12.074;2023-03-14T10:10:33;89718.81;;;7.37;100.00
33859;BME280;20156;47.486;12.074;2023-03-14T10:15:47;89901.28;;;7.29;100.00
33859;BME280;20156;47.486;12.074;2023-03-14T10:18:13;90042.50;;;7.25;100.00
33859;BME280;20156;47.486;12.074;2023-03-14T10:20:42;90209.72;;;7.24;100.00
33859;BME280;20156;47.486;12.074;2023-03-14T10:25:38;90693.09;;;7.06;100.00
33859;BME280;20156;47.486;12.074;2023-03-14T10:28:05;90917.44;;;6.99;100.00
33859;BME280;20156;47.486;12.074;2023-03-14T10:30:44;91104.41;;;7.03;100.00
33859;BME280;20156;47.486;12.074;2023-03-14T10:33:22;91286.72;;;6.90;100.00
33859;BME280;20156;47.486;12.074;2023-03-14T10:35:53;91435.94;;;6.98;100.00
33859;BME280;20156;47.486;12.074;2023-03-14T10:38:23;91557.16;;;7.18;100.00
33859;BME280;20156;47.486;12.074;2023-03-14T10:40:51;91680.50;;;7.13;100.00
33859;BME280;20156;47.486;12.074;2023-03-14T10:43:34;91822.97;;;6.96;100.00
33859;BME280;20156;47.486;12.074;2023-03-14T10:46:08;91887.34;;;6.82;100.00
33859;BME280;20156;47.486;12.074;2023-03-14T10:48:36;91897.41;;;6.84;100.00
33859;BME280;20156;47.486;12.074;2023-03-14T10:53:48;91818.94;;;6.64;100.00
33859;BME280;20156;47.486;12.074;2023-03-14T10:56:18;91866.84;;;7.06;100.00
33859;BME280;20156;47.486;12.074;2023-03-14T10:58:46;91942.00;;;7.15;100.00
33859;BME280;20156;47.486;12.074;2023-03-14T11:09:41;92273.94;;;7.54;100.00
33859;BME280;20156;47.486;12.074;2023-03-14T11:20:58;92685.66;;;8.26;100.00
33859;BME280;20156;47.486;12.074;2023-03-14T11:28:57;92769.03;;;8.70;100.00
33859;BME280;20156;47.486;12.074;2023-03-14T11:31:28;92784.13;;;8.36;100.00
33859;BME280;20156;47.486;12.074;2023-03-14T11:37:14;92703.00;;;7.51;100.00
33859;BME280;20156;47.486;12.074;2023-03-14T11:39:43;92679.19;;;7.17;100.00
33859;BME280;20156;47.486;12.074;2023-03-14T11:42:16;92627.13;;;7.03;100.00
33859;BME280;20156;47.486;12.074;2023-03-14T11:44:45;92583.81;;;7.20;100.00
33859;BME280;20156;47.486;12.074;2023-03-14T11:49:50;92505.97;;;8.37;100.00
33859;BME280;20156;47.486;12.074;2023-03-14T11:57:43;92735.72;;;9.04;100.00
33859;BME280;20156;47.486;12.074;2023-03-14T12:00:23;92788.34;;;8.94;100.00
33859;BME280;20156;47.486;12.074;2023-03-14T12:10:51;92822.91;;;9.15;100.00
33859;BME280;20156;47.486;12.074;2023-03-14T12:13:17;92879.72;;;9.17;100.00
33859;BME280;20156;47.486;12.074;2023-03-14T12:15:49;92900.84;;;9.46;100.00
33859;BME280;20156;47.486;12.074;2023-03-14T12:18:21;92878.53;;;9.50;100.00
33859;BME280;20156;47.486;12.074;2023-03-14T12:20:59;92896.38;;;10.14;100.00
33859;BME280;20156;47.486;12.074;2023-03-14T12:23:27;92957.78;;;10.61;100.00
33859;BME280;20156;47.486;12.074;2023-03-14T12:29:23;93141.66;;;10.75;100.00
33859;BME280;20156;47.486;12.074;2023-03-14T12:37:33;93324.94;;;10.31;100.00
33859;BME280;20156;47.486;12.074;2023-03-14T12:45:14;93407.19;;;9.93;100.00
33859;BME280;20156;47.486;12.074;2023-03-14T12:47:50;93388.09;;;9.82;100.00
33859;BME280;20156;47.486;12.074;2023-03-14T12:50:26;93340.97;;;9.95;100.00
33859;BME280;20156;47.486;12.074;2023-03-14T12:58:03;93276.16;;;10.43;100.00
33859;BME280;20156;47.486;12.074;2023-03-14T13:00:35;93338.25;;;10.39;100.00
33859;BME280;20156;47.486;12.074;2023-03-14T13:03:17;93390.09;;;10.24;100.00
33859;BME280;20156;47.486;12.074;2023-03-14T13:05:57;93385.91;;;10.23;100.00
33859;BME280;20156;47.486;12.074;2023-03-14T13:10:58;93414.91;;;10.37;100.00
33859;BME280;20156;47.486;12.074;2023-03-14T13:13:26;93426.16;;;10.42;100.00
33859;BME280;20156;47.486;12.074;2023-03-14T13:15:59;93411.13;;;10.49;100.00
33859;BME280;20156;47.486;12.074;2023-03-14T13:18:34;93409.69;;;10.37;100.00
33859;BME280;20156;47.486;12.074;2023-03-14T13:21:09;93379.66;;;10.51;100.00
33859;BME280;20156;47.486;12.074;2023-03-14T13:23:37;93386.59;;;10.40;100.00
33859;BME280;20156;47.486;12.074;2023-03-14T13:26:05;93372.09;;;10.44;100.00
33859;BME280;20156;47.486;12.074;2023-03-14T13:28:34;93344.66;;;10.64;100.00
33859;BME280;20156;47.486;12.074;2023-03-14T13:31:02;93366.56;;;10.73;100.00
33859;BME280;20156;47.486;12.074;2023-03-14T13:33:28;93392.53;;;10.68;100.00
33859;BME280;20156;47.486;12.074;2023-03-14T13:35:56;93467.59;;;10.86;100.00
33859;BME280;20156;47.486;12.074;2023-03-14T13:38:24;93501.78;;;10.73;100.00
33859;BME280;20156;47.486;12.074;2023-03-14T13:40:51;93478.53;;;10.88;100.00
33859;BME280;20156;47.486;12.074;2023-03-14T13:43:31;93524.25;;;10.79;100.00
33859;BME280;20156;47.486;12.074;2023-03-14T13:46:05;93558.03;;;10.52;100.00
33859;BME280;20156;47.486;12.074;2023-03-14T13:48:36;93569.91;;;10.43;100.00
33859;BME280;20156;47.486;12.074;2023-03-14T13:51:06;93573.88;;;10.29;100.00
33859;BME280;20156;47.486;12.074;2023-03-14T13:53:51;93558.06;;;10.13;100.00
33859;BME280;20156;47.486;12.074;2023-03-14T13:56:21;93486.66;;;10.16;100.00
33859;BME280;20156;47.486;12.074;2023-03-14T13:58:48;93421.03;;;10.04;100.00
33859;BME280;20156;47.486;12.074;2023-03-14T14:01:27;93358.03;;;10.13;100.00
33859;BME280;20156;47.486;12.074;2023-03-14T14:03:57;93281.53;;;10.31;100.00
33859;BME280;20156;47.486;12.074;2023-03-14T14:08:52;93207.59;;;10.17;100.00
33859;BME280;20156;47.486;12.074;2023-03-14T14:14:04;93174.25;;;10.04;100.00
33859;BME280;20156;47.486;12.074;2023-03-14T14:16:31;93207.19;;;9.93;100.00
33859;BME280;20156;47.486;12.074;2023-03-14T14:18:57;93206.19;;;9.99;100.00